Time;durP1;ratioP1;P1;durP2;ratioP2;P2;SDS_P1;SDS_P2;PMS_P1;PMS_P2;Temp;Humidity;BMP_temperature;BMP_pressure;BME280_temperature;BME280_humidity;BME280_pressure;Samples;Min_cycle;Max_cycle;Signal;HPM_P1;HPM_P2
2022/02/21 00:02:09;;;;;;;4.60;1.33;;;7.90;69.40;;;;;;4987144;28;20185;-58
2022/02/21 00:04:35;;;;;;;7.47;2.00;;;7.90;69.30;;;;;;4987404;28;20185;-54
2022/02/21 00:07:01;;;;;;;3.90;1.80;;;7.90;69.60;;;;;;4983111;28;20497;-58
2022/02/21 00:09:27;;;;;;;5.40;1.90;;;7.90;69.40;;;;;;4986195;28;20700;-57
2022/02/21 00:11:53;;;;;;;5.53;2.00;;;7.90;69.30;;;;;;4987003;28;20428;-59
2022/02/21 00:14:19;;;;;;;7.90;2.30;;;7.90;69.20;;;;;;4988330;28;20436;-60
2022/02/21 00:16:44;;;;;;;5.37;2.00;;;7.90;69.40;;;;;;4987261;28;20598;-60
2022/02/21 00:19:10;;;;;;;3.00;1.80;;;7.90;69.10;;;;;;4985958;28;20825;-55
2022/02/21 00:21:36;;;;;;;3.90;1.77;;;7.90;68.90;;;;;;4988778;28;20213;-58
2022/02/21 00:24:01;;;;;;;5.93;2.40;;;8.00;69.10;;;;;;4998743;28;20611;-58
2022/02/21 00:26:27;;;;;;;9.73;2.00;;;7.90;70.00;;;;;;4985954;28;20255;-58
2022/02/21 00:28:53;;;;;;;2.70;1.50;;;7.90;71.50;;;;;;4985828;28;20181;-58
2022/02/21 00:31:18;;;;;;;6.20;2.20;;;7.90;72.60;;;;;;4987355;28;20268;-59
2022/02/21 00:33:44;;;;;;;6.97;2.27;;;7.80;73.70;;;;;;4984842;28;20538;-58
2022/02/21 00:36:10;;;;;;;4.60;1.60;;;7.80;73.30;;;;;;4987605;28;20178;-59
2022/02/21 00:38:35;;;;;;;6.40;2.10;;;7.80;72.50;;;;;;4986179;28;20428;-60
2022/02/21 00:41:02;;;;;;;9.17;1.93;;;7.80;72.00;;;;;;4989044;28;20650;-60
2022/02/21 00:43:28;;;;;;;6.10;1.90;;;7.80;72.00;;;;;;4984700;28;20440;-59
2022/02/21 00:45:54;;;;;;;3.37;1.87;;;7.80;71.60;;;;;;4984502;28;21457;-59
2022/02/21 00:48:20;;;;;;;2.83;1.60;;;7.80;71.60;;;;;;4986530;28;20258;-58
2022/02/21 00:50:46;;;;;;;8.77;1.83;;;7.80;71.10;;;;;;4986463;28;20420;-58
2022/02/21 00:53:12;;;;;;;4.93;1.57;;;7.80;69.90;;;;;;4986446;28;20841;-56
2022/02/21 00:55:39;;;;;;;6.33;1.77;;;7.90;69.80;;;;;;4986079;28;20434;-58
2022/02/21 00:58:06;;;;;;;4.57;1.87;;;7.90;70.00;;;;;;4987253;28;20445;-57
2022/02/21 01:00:32;;;;;;;6.40;1.93;;;7.90;70.40;;;;;;4982624;28;20719;-59
2022/02/21 01:02:58;;;;;;;5.07;1.47;;;7.80;70.50;;;;;;4985592;28;20424;-59
2022/02/21 01:05:24;;;;;;;1.60;1.50;;;7.80;70.20;;;;;;4984659;28;20428;-58
2022/02/21 01:07:50;;;;;;;5.10;1.73;;;7.80;70.30;;;;;;4986693;28;20200;-57
2022/02/21 01:10:16;;;;;;;4.80;1.70;;;7.80;69.80;;;;;;4982570;28;20548;-57
2022/02/21 01:12:42;;;;;;;4.17;2.20;;;7.80;69.70;;;;;;4998748;28;20421;-58
2022/02/21 01:15:09;;;;;;;3.93;1.77;;;7.80;69.40;;;;;;4981851;28;20280;-58
2022/02/21 01:17:34;;;;;;;4.50;1.60;;;7.90;69.40;;;;;;4985464;28;20540;-58
2022/02/21 01:20:03;;;;;;;3.20;1.77;;;7.80;69.50;;;;;;4984561;28;20431;-59
2022/02/21 01:22:30;;;;;;;5.47;1.80;;;7.80;69.80;;;;;;4984826;28;20673;-57
2022/02/21 01:24:56;;;;;;;6.37;1.77;;;7.80;69.80;;;;;;4981956;28;20439;-57
2022/02/21 01:27:22;;;;;;;6.57;1.50;;;7.80;69.60;;;;;;4982526;28;21129;-57
2022/02/21 01:29:47;;;;;;;5.70;1.60;;;7.80;69.60;;;;;;4983228;28;20483;-57
2022/02/21 01:32:13;;;;;;;3.37;1.67;;;7.80;69.30;;;;;;4984117;28;20182;-57
2022/02/21 01:34:39;;;;;;;2.90;1.70;;;7.90;69.70;;;;;;4984514;28;20310;-58
2022/02/21 01:37:05;;;;;;;1.90;1.53;;;7.90;69.70;;;;;;4983898;28;20201;-57
2022/02/21 01:39:31;;;;;;;2.93;1.63;;;7.90;70.80;;;;;;4983423;28;20285;-59
2022/02/21 01:41:56;;;;;;;5.17;1.87;;;7.90;71.70;;;;;;4985020;28;20517;-56
2022/02/21 01:44:37;;;;;;;5.37;1.93;;;7.80;73.10;;;;;;4985368;28;20722;-58
2022/02/21 01:47:06;;;;;;;5.80;1.70;;;7.80;75.30;;;;;;4983833;28;20216;-58
2022/02/21 01:49:31;;;;;;;4.97;1.80;;;7.80;77.50;;;;;;4984060;28;20556;-59
2022/02/21 01:51:57;;;;;;;3.53;1.70;;;7.70;78.60;;;;;;4985819;28;21133;-59
2022/02/21 01:54:23;;;;;;;4.83;1.50;;;7.70;82.60;;;;;;4984694;28;20600;-59
2022/02/21 01:56:48;;;;;;;1.80;1.30;;;7.70;83.50;;;;;;4986550;28;20268;-58
2022/02/21 01:59:14;;;;;;;5.27;1.90;;;7.60;86.10;;;;;;4983528;28;20193;-59
2022/02/21 02:01:40;;;;;;;4.33;1.70;;;7.60;89.70;;;;;;4986037;28;20232;-60
2022/02/21 02:04:05;;;;;;;5.13;1.50;;;7.50;92.20;;;;;;4990261;28;20533;-61
2022/02/21 02:06:32;;;;;;;3.97;1.40;;;7.50;93.40;;;;;;4991165;28;20275;-57
2022/02/21 02:08:58;;;;;;;3.80;1.33;;;7.40;95.30;;;;;;4987178;28;20185;-59
2022/02/21 02:11:26;;;;;;;3.53;1.37;;;7.30;96.50;;;;;;4990003;28;20421;-58
2022/02/21 02:13:51;;;;;;;5.83;1.90;;;7.30;97.60;;;;;;4988787;28;20432;-58
2022/02/21 02:16:18;;;;;;;1.83;1.10;;;7.30;98.30;;;;;;4990554;28;20428;-57
2022/02/21 02:18:44;;;;;;;2.40;1.33;;;7.20;98.90;;;;;;4988313;28;20260;-58
2022/02/21 02:21:14;;;;;;;3.03;1.30;;;7.20;99.80;;;;;;4989885;28;20920;-58
2022/02/21 02:23:40;;;;;;;6.50;2.00;;;7.10;99.90;;;;;;4990141;28;20564;-58
2022/02/21 02:26:06;;;;;;;3.97;1.53;;;7.10;99.90;;;;;;4991942;28;20438;-58
2022/02/21 02:28:32;;;;;;;5.60;1.60;;;7.00;99.90;;;;;;4988571;28;20453;-64
2022/02/21 02:30:57;;;;;;;2.63;1.70;;;7.00;99.90;;;;;;4992462;28;20173;-58
2022/02/21 02:33:23;;;;;;;5.57;1.60;;;6.90;99.90;;;;;;4993604;28;20267;-59
2022/02/21 02:35:48;;;;;;;5.13;1.40;;;6.90;99.90;;;;;;4991479;28;20179;-59
2022/02/21 02:38:14;;;;;;;2.60;1.60;;;6.80;99.90;;;;;;4991291;28;20610;-58
2022/02/21 02:40:40;;;;;;;2.77;1.40;;;6.80;99.90;;;;;;4991655;28;20221;-57
2022/02/21 02:43:05;;;;;;;3.57;1.30;;;6.80;99.90;;;;;;4990882;28;20248;-58
2022/02/21 02:45:32;;;;;;;7.73;2.33;;;6.80;99.90;;;;;;4986051;28;20169;-59
2022/02/21 02:47:58;;;;;;;6.17;1.77;;;6.70;99.90;;;;;;5017455;22;20319;-59
2022/02/21 02:50:24;;;;;;;1.90;1.37;;;6.70;99.90;;;;;;5013780;28;20554;-59
2022/02/21 02:52:49;;;;;;;2.97;1.57;;;6.70;99.90;;;;;;5007344;28;20517;-59
2022/02/21 02:55:15;;;;;;;2.87;1.37;;;6.70;99.90;;;;;;5008241;28;20179;-59
2022/02/21 02:57:41;;;;;;;2.20;1.57;;;6.70;99.90;;;;;;5005516;28;20736;-58
2022/02/21 03:00:07;;;;;;;1.80;1.47;;;6.60;99.90;;;;;;5004327;28;20185;-58
2022/02/21 03:02:32;;;;;;;3.93;1.40;;;6.60;99.90;;;;;;5007111;28;21826;-59
2022/02/21 03:04:58;;;;;;;2.87;1.40;;;6.60;99.90;;;;;;5004961;28;20815;-59
2022/02/21 03:07:24;;;;;;;2.43;2.20;;;6.60;99.90;;;;;;5006077;28;20236;-58
2022/02/21 03:09:49;;;;;;;2.00;1.50;;;6.50;99.90;;;;;;5005300;28;20172;-59
2022/02/21 03:12:15;;;;;;;3.90;2.10;;;6.50;99.90;;;;;;5005272;28;20192;-58
2022/02/21 03:14:40;;;;;;;3.20;1.83;;;6.50;99.90;;;;;;5001951;28;20169;-59
2022/02/21 03:17:06;;;;;;;2.40;1.53;;;6.50;99.90;;;;;;5000384;28;20208;-59
2022/02/21 03:19:32;;;;;;;3.23;1.80;;;6.40;99.90;;;;;;5002269;28;20181;-59
2022/02/21 03:21:59;;;;;;;3.70;1.87;;;6.40;99.90;;;;;;5002505;28;20455;-59
2022/02/21 03:24:25;;;;;;;2.57;1.60;;;6.40;99.90;;;;;;5002747;28;20431;-59
2022/02/21 03:26:51;;;;;;;1.63;1.40;;;6.40;99.90;;;;;;5002780;28;20466;-58
2022/02/21 03:29:16;;;;;;;3.60;1.60;;;6.40;99.90;;;;;;5002032;28;20252;-58
2022/02/21 03:31:42;;;;;;;2.43;1.40;;;6.40;99.90;;;;;;5003939;28;20574;-57
2022/02/21 03:34:08;;;;;;;1.60;1.50;;;6.40;99.90;;;;;;5003834;28;20176;-58
2022/02/21 03:36:33;;;;;;;1.57;1.20;;;6.40;99.90;;;;;;5002676;28;20572;-57
2022/02/21 03:38:59;;;;;;;2.13;1.40;;;6.50;99.90;;;;;;5002846;28;20204;-57
2022/02/21 03:41:25;;;;;;;1.47;1.30;;;6.50;99.90;;;;;;5003660;28;20455;-58
2022/02/21 03:43:51;;;;;;;3.10;1.40;;;6.50;99.90;;;;;;5003808;28;20176;-57
2022/02/21 03:46:16;;;;;;;1.47;1.30;;;6.50;99.90;;;;;;5003048;28;20435;-58
2022/02/21 03:48:42;;;;;;;2.10;1.33;;;6.50;99.90;;;;;;5000705;28;20481;-58
2022/02/21 03:51:07;;;;;;;2.70;1.60;;;6.50;99.90;;;;;;5000738;28;20169;-58
2022/02/21 03:53:33;;;;;;;6.20;1.43;;;6.50;99.90;;;;;;5004665;28;20213;-58
2022/02/21 03:55:59;;;;;;;2.90;1.30;;;6.50;99.90;;;;;;5004323;28;20235;-58
2022/02/21 03:58:24;;;;;;;1.23;1.13;;;6.60;99.90;;;;;;5002096;28;20660;-57
2022/02/21 04:00:50;;;;;;;1.10;1.10;;;6.60;99.90;;;;;;5002648;28;20192;-58
2022/02/21 04:03:16;;;;;;;1.83;1.07;;;6.60;99.90;;;;;;5002468;28;20690;-58
2022/02/21 04:05:41;;;;;;;2.03;1.03;;;6.70;99.90;;;;;;5002120;28;20189;-58
2022/02/21 04:08:07;;;;;;;2.47;1.10;;;6.70;99.90;;;;;;5001275;28;20548;-57
2022/02/21 04:10:32;;;;;;;1.00;1.00;;;6.70;99.90;;;;;;5003366;28;20649;-60
2022/02/21 04:12:58;;;;;;;9.23;1.20;;;6.70;99.90;;;;;;5002033;28;20196;-58
2022/02/21 04:15:24;;;;;;;1.37;1.00;;;6.70;99.90;;;;;;5002625;28;20189;-58
2022/02/21 04:17:51;;;;;;;0.90;0.90;;;6.80;99.90;;;;;;5004534;28;20681;-57
2022/02/21 04:20:19;;;;;;;1.07;0.90;;;6.80;99.90;;;;;;5001422;28;20183;-58
2022/02/21 04:22:46;;;;;;;1.53;1.00;;;6.80;99.90;;;;;;5002234;28;20451;-58
2022/02/21 04:25:13;;;;;;;0.80;0.80;;;6.80;99.90;;;;;;5001825;28;20868;-58
2022/02/21 04:27:42;;;;;;;1.23;0.90;;;6.80;99.90;;;;;;5004011;28;20541;-58
2022/02/21 04:30:08;;;;;;;1.50;1.10;;;6.80;99.90;;;;;;5001391;28;20510;-58
2022/02/21 04:32:36;;;;;;;3.37;0.97;;;6.80;99.90;;;;;;5003049;28;20753;-57
2022/02/21 04:35:03;;;;;;;1.00;1.00;;;6.90;99.90;;;;;;5001673;28;20940;-57
2022/02/21 04:37:28;;;;;;;1.17;0.90;;;6.90;99.90;;;;;;5002008;28;20502;-57
2022/02/21 04:39:54;;;;;;;0.90;0.90;;;6.90;99.90;;;;;;5001011;28;20451;-57
2022/02/21 04:42:20;;;;;;;1.43;1.00;;;6.90;99.90;;;;;;5001136;28;20262;-57
2022/02/21 04:44:45;;;;;;;0.70;0.70;;;6.90;99.90;;;;;;5000039;28;20217;-57
2022/02/21 04:47:11;;;;;;;1.43;0.90;;;6.90;99.90;;;;;;5000918;28;20287;-57
2022/02/21 04:49:36;;;;;;;0.87;0.80;;;6.80;99.90;;;;;;5001047;28;20215;-57
2022/02/21 04:52:02;;;;;;;1.00;0.90;;;6.80;99.90;;;;;;5002040;28;20181;-56
2022/02/21 04:54:28;;;;;;;0.90;0.90;;;6.80;99.90;;;;;;5000476;28;20187;-58
2022/02/21 04:56:53;;;;;;;0.70;0.70;;;6.70;99.90;;;;;;5001163;28;20192;-56
2022/02/21 04:59:19;;;;;;;0.73;0.73;;;6.70;99.90;;;;;;4994089;28;20188;-59
2022/02/21 05:01:45;;;;;;;2.80;1.00;;;6.70;99.90;;;;;;4999859;28;20663;-58
2022/02/21 05:04:10;;;;;;;6.43;0.90;;;6.60;99.90;;;;;;4994612;28;20207;-58
2022/02/21 05:06:36;;;;;;;0.70;0.70;;;6.50;99.30;;;;;;4998009;28;20597;-59
2022/02/21 05:09:02;;;;;;;0.73;0.73;;;6.00;86.10;;;;;;4996971;28;20220;-54
2022/02/21 05:11:27;;;;;;;0.80;0.80;;;5.40;92.30;;;;;;4997229;28;20188;-59
2022/02/21 05:13:53;;;;;;;0.77;0.77;;;4.70;96.90;;;;;;4999085;28;20176;-59
2022/02/21 05:16:19;;;;;;;0.80;0.80;;;4.30;99.90;;;;;;4997260;28;20184;-58
2022/02/21 05:18:44;;;;;;;0.80;0.80;;;3.90;99.90;;;;;;4991775;28;20196;-59
2022/02/21 05:21:10;;;;;;;0.80;0.80;;;3.60;99.90;;;;;;4997989;28;20184;-59
2022/02/21 05:23:35;;;;;;;0.90;0.90;;;3.40;99.90;;;;;;4995729;28;20595;-59
2022/02/21 05:26:01;;;;;;;0.90;0.90;;;3.20;99.90;;;;;;4994418;28;20191;-58
2022/02/21 05:28:27;;;;;;;0.87;0.87;;;3.00;99.90;;;;;;4997861;28;20636;-58
2022/02/21 05:30:54;;;;;;;1.00;1.00;;;3.00;99.90;;;;;;4998736;28;22399;-58
2022/02/21 05:33:20;;;;;;;2.77;1.17;;;2.80;99.90;;;;;;4998786;28;20176;-57
2022/02/21 05:35:46;;;;;;;1.47;1.10;;;2.70;99.90;;;;;;5000497;28;20552;-58
2022/02/21 05:38:11;;;;;;;1.10;1.10;;;2.70;99.90;;;;;;4997466;28;20200;-58
2022/02/21 05:40:37;;;;;;;1.47;1.20;;;2.60;99.90;;;;;;5001149;28;20180;-58
2022/02/21 05:43:03;;;;;;;0.90;0.90;;;2.60;99.90;;;;;;4997543;28;20185;-58
2022/02/21 05:45:29;;;;;;;1.33;1.23;;;2.50;99.90;;;;;;5000359;28;20791;-58
2022/02/21 05:47:55;;;;;;;1.50;1.40;;;2.50;99.90;;;;;;4999136;28;20469;-58
2022/02/21 05:50:20;;;;;;;1.93;1.20;;;2.50;99.90;;;;;;4996982;28;20207;-57
2022/02/21 05:52:46;;;;;;;1.60;1.30;;;2.50;99.90;;;;;;4996899;28;20652;-59
2022/02/21 05:55:13;;;;;;;1.90;1.80;;;2.50;99.90;;;;;;4993708;28;20208;-57
2022/02/21 05:57:39;;;;;;;1.30;1.20;;;2.50;99.90;;;;;;5001860;28;20652;-58
2022/02/21 06:00:06;;;;;;;3.63;1.30;;;2.50;99.90;;;;;;5001159;28;20960;-57
2022/02/21 06:02:32;;;;;;;1.47;1.20;;;2.50;99.90;;;;;;4999918;28;22297;-58
2022/02/21 06:04:59;;;;;;;1.37;1.27;;;2.50;99.90;;;;;;5001514;28;20450;-57
2022/02/21 06:07:24;;;;;;;2.03;1.57;;;2.50;99.90;;;;;;4999989;28;20224;-58
2022/02/21 06:09:50;;;;;;;3.30;1.47;;;2.50;99.90;;;;;;5002933;28;20819;-57
2022/02/21 06:12:16;;;;;;;2.40;1.47;;;2.50;99.90;;;;;;4993816;28;20184;-57
2022/02/21 06:14:42;;;;;;;2.37;1.47;;;2.50;99.90;;;;;;5002168;28;20650;-57
2022/02/21 06:17:07;;;;;;;4.63;1.97;;;2.50;99.90;;;;;;4998449;28;20213;-57
2022/02/21 06:19:33;;;;;;;2.63;1.47;;;2.50;99.90;;;;;;5006079;28;20169;-57
2022/02/21 06:22:01;;;;;;;2.30;2.10;;;2.50;99.90;;;;;;5006443;28;20170;-57
2022/02/21 06:24:27;;;;;;;2.93;1.50;;;2.60;94.70;;;;;;4987556;28;20184;-57
2022/02/21 06:26:52;;;;;;;4.33;1.30;;;2.60;94.90;;;;;;4990438;28;20507;-56
2022/02/21 06:29:18;;;;;;;2.60;1.43;;;2.50;97.60;;;;;;4998743;28;20179;-57
2022/02/21 06:31:44;;;;;;;2.20;1.93;;;2.50;97.90;;;;;;5006746;28;20245;-57
2022/02/21 06:34:10;;;;;;;1.40;1.30;;;2.40;97.10;;;;;;5003513;28;20177;-58
2022/02/21 06:36:36;;;;;;;1.60;1.50;;;2.50;94.80;;;;;;5005058;28;20177;-57
2022/02/21 06:39:02;;;;;;;5.50;1.30;;;2.50;96.90;;;;;;4996645;28;20738;-58
2022/02/21 06:41:28;;;;;;;4.67;1.57;;;2.50;96.20;;;;;;4990189;28;20435;-58
2022/02/21 06:43:53;;;;;;;3.70;1.60;;;2.50;96.10;;;;;;5017672;28;20432;-58
2022/02/21 06:46:19;;;;;;;5.50;1.73;;;2.50;96.70;;;;;;5016861;28;20271;-59
2022/02/21 06:48:45;;;;;;;1.83;1.40;;;2.50;99.90;;;;;;5009471;28;20240;-58
2022/02/21 06:51:10;;;;;;;5.20;2.23;;;2.50;99.90;;;;;;5011345;28;20183;-58
2022/02/21 06:53:36;;;;;;;8.37;2.07;;;2.50;99.90;;;;;;5007689;28;20173;-57
2022/02/21 06:56:02;;;;;;;3.47;1.60;;;2.50;99.90;;;;;;5002694;28;20243;-57
2022/02/21 06:58:28;;;;;;;4.90;1.57;;;2.50;96.40;;;;;;5018824;28;20707;-59
2022/02/21 07:00:54;;;;;;;2.57;1.70;;;2.60;95.70;;;;;;4999139;28;20442;-58
2022/02/21 07:03:20;;;;;;;3.33;1.60;;;2.60;94.20;;;;;;5009993;28;20189;-58
2022/02/21 07:05:46;;;;;;;3.10;1.40;;;2.60;92.40;;;;;;5003291;28;20452;-58
2022/02/21 07:08:12;;;;;;;4.53;1.73;;;2.60;95.70;;;;;;5003079;28;20470;-58
2022/02/21 07:10:38;;;;;;;5.90;1.50;;;2.60;97.70;;;;;;5003321;28;20192;-58
2022/02/21 07:13:04;;;;;;;10.23;2.07;;;2.60;97.30;;;;;;4993115;28;20925;-58
2022/02/21 07:15:30;;;;;;;3.80;2.07;;;2.60;97.70;;;;;;5011406;28;20495;-58
2022/02/21 07:17:57;;;;;;;15.30;2.00;;;2.60;94.10;;;;;;5020795;28;20601;-58
2022/02/21 07:20:25;;;;;;;5.77;1.87;;;2.70;93.50;;;;;;5009006;28;20191;-58
2022/02/21 07:22:50;;;;;;;4.43;2.33;;;2.70;91.40;;;;;;5007184;28;20415;-57
2022/02/21 07:25:17;;;;;;;7.50;1.83;;;2.70;91.80;;;;;;5008036;28;20971;-58
2022/02/21 07:27:48;;;;;;;4.90;2.00;;;2.70;93.40;;;;;;5006846;28;20207;-59
2022/02/21 07:30:15;;;;;;;1.67;1.43;;;2.60;94.90;;;;;;5001300;28;20820;-58
2022/02/21 07:32:42;;;;;;;2.63;1.67;;;2.60;98.30;;;;;;4997858;28;20492;-58
2022/02/21 07:35:08;;;;;;;2.70;2.00;;;2.60;98.70;;;;;;4999047;28;20557;-58
2022/02/21 07:37:34;;;;;;;2.90;1.70;;;2.70;99.50;;;;;;5007617;28;20985;-58
2022/02/21 07:40:00;;;;;;;3.87;2.13;;;2.70;99.30;;;;;;5017517;28;20459;-57
2022/02/21 07:42:25;;;;;;;2.80;1.80;;;2.70;99.10;;;;;;5006868;28;20185;-58
2022/02/21 07:44:52;;;;;;;4.20;2.20;;;2.70;99.90;;;;;;5011893;28;20434;-58
2022/02/21 07:47:18;;;;;;;3.97;2.43;;;2.70;99.90;;;;;;4995788;28;20220;-58
2022/02/21 07:49:44;;;;;;;7.50;2.73;;;2.60;99.90;;;;;;4990599;28;20431;-57
2022/02/21 07:52:10;;;;;;;5.10;2.30;;;2.60;99.90;;;;;;5001084;28;20800;-58
2022/02/21 07:54:36;;;;;;;4.23;1.70;;;2.60;99.90;;;;;;5004897;28;20475;-57
2022/02/21 07:57:03;;;;;;;6.30;1.90;;;2.60;99.90;;;;;;4997494;28;20443;-58
2022/02/21 07:59:29;;;;;;;7.43;2.20;;;2.60;99.90;;;;;;5011111;28;20485;-57
2022/02/21 08:01:54;;;;;;;4.20;2.27;;;2.60;99.90;;;;;;5000980;28;20432;-57
2022/02/21 08:04:20;;;;;;;5.50;2.20;;;2.70;99.90;;;;;;5008392;28;20437;-57
2022/02/21 08:06:46;;;;;;;11.17;2.57;;;2.80;99.90;;;;;;5009740;28;20196;-57
2022/02/21 08:09:12;;;;;;;9.27;1.80;;;2.80;99.90;;;;;;5008408;28;20172;-57
2022/02/21 08:11:39;;;;;;;7.90;2.07;;;2.90;99.90;;;;;;4999706;28;20419;-58
2022/02/21 08:14:05;;;;;;;3.87;2.20;;;2.90;99.90;;;;;;5010980;28;20475;-58
2022/02/21 08:16:31;;;;;;;4.20;2.40;;;3.00;99.90;;;;;;5003700;28;20438;-58
2022/02/21 08:18:57;;;;;;;5.10;2.13;;;3.10;99.90;;;;;;5002771;28;20549;-58
2022/02/21 08:21:23;;;;;;;7.37;2.60;;;3.20;99.30;;;;;;5006931;28;20524;-57
2022/02/21 08:23:48;;;;;;;11.23;2.17;;;3.40;99.20;;;;;;5007281;28;20183;-58
2022/02/21 08:26:14;;;;;;;5.00;2.00;;;3.50;97.00;;;;;;4999644;28;20184;-58
2022/02/21 08:28:41;;;;;;;13.33;2.33;;;3.50;95.40;;;;;;4998606;28;20200;-57
2022/02/21 08:31:06;;;;;;;8.63;2.07;;;3.60;95.80;;;;;;5004651;28;20648;-58
2022/02/21 08:33:33;;;;;;;5.63;2.00;;;3.60;93.50;;;;;;5010549;28;20593;-57
2022/02/21 08:35:58;;;;;;;6.30;2.20;;;3.60;93.20;;;;;;4999759;28;20453;-57
2022/02/21 08:38:24;;;;;;;6.50;1.70;;;3.60;95.00;;;;;;5009538;28;20458;-57
2022/02/21 08:40:50;;;;;;;5.40;2.20;;;3.60;93.70;;;;;;5008021;28;20258;-57
2022/02/21 08:43:15;;;;;;;6.60;1.93;;;3.60;94.40;;;;;;5010209;28;20353;-57
2022/02/21 08:45:41;;;;;;;5.67;2.20;;;3.70;90.50;;;;;;4997782;28;20712;-58
2022/02/21 08:48:06;;;;;;;8.40;1.97;;;3.70;95.70;;;;;;5035832;23;20314;-59
2022/02/21 08:50:32;;;;;;;6.13;2.00;;;3.90;93.10;;;;;;5023605;28;20179;-59
2022/02/21 08:52:58;;;;;;;5.40;2.20;;;4.00;93.00;;;;;;5001456;28;20176;-60
2022/02/21 08:55:24;;;;;;;7.37;2.00;;;4.10;94.60;;;;;;5001988;28;20482;-60
2022/02/21 08:57:49;;;;;;;9.13;3.07;;;4.20;92.10;;;;;;4995534;28;20184;-58
2022/02/21 09:00:17;;;;;;;15.60;2.80;;;4.20;93.50;;;;;;5008316;28;20200;-60
2022/02/21 09:02:44;;;;;;;9.37;2.40;;;4.20;87.30;;;;;;5012690;28;20421;-60
2022/02/21 09:05:11;;;;;;;13.27;2.27;;;4.20;90.80;;;;;;5005657;28;20527;-59
2022/02/21 09:07:37;;;;;;;8.70;2.17;;;4.30;85.60;;;;;;5004124;28;20950;-59
2022/02/21 09:10:04;;;;;;;8.13;1.93;;;4.30;87.00;;;;;;5007980;28;20520;-61
2022/02/21 09:12:30;;;;;;;8.80;2.80;;;4.30;78.50;;;;;;5003717;28;20411;-67
2022/02/21 09:15:00;;;;;;;9.30;2.83;;;4.20;84.00;;;;;;5001613;28;20542;-58
2022/02/21 09:17:25;;;;;;;12.50;2.50;;;4.40;85.30;;;;;;5006410;28;20905;-60
2022/02/21 09:19:51;;;;;;;3.57;1.73;;;4.50;84.10;;;;;;5004660;28;20475;-59
2022/02/21 09:22:17;;;;;;;11.47;2.60;;;4.60;85.00;;;;;;5010684;28;20181;-59
2022/02/21 09:24:44;;;;;;;10.80;1.90;;;4.70;86.90;;;;;;5006798;28;20554;-57
2022/02/21 09:27:10;;;;;;;7.57;2.60;;;4.80;90.90;;;;;;5008654;28;20884;-60
2022/02/21 09:29:35;;;;;;;5.70;2.20;;;4.80;90.50;;;;;;5002648;28;20518;-60
2022/02/21 09:32:01;;;;;;;10.83;3.10;;;4.80;83.20;;;;;;5007932;28;20180;-61
2022/02/21 09:34:27;;;;;;;11.13;2.30;;;4.70;82.70;;;;;;5004404;28;20203;-60
2022/02/21 09:36:53;;;;;;;6.60;2.63;;;4.60;78.40;;;;;;5014912;28;20237;-59
2022/02/21 09:39:18;;;;;;;3.23;1.80;;;4.50;81.00;;;;;;5015859;28;20197;-58
2022/02/21 09:41:44;;;;;;;6.50;2.20;;;4.50;80.80;;;;;;5018959;28;20199;-59
2022/02/21 09:44:10;;;;;;;6.13;2.40;;;4.50;83.80;;;;;;5014806;28;20218;-57
2022/02/21 09:46:38;;;;;;;11.33;2.10;;;4.50;87.70;;;;;;5007516;28;20483;-60
2022/02/21 09:49:07;;;;;;;6.67;2.17;;;4.50;82.90;;;;;;5015093;28;20577;-58
2022/02/21 09:51:33;;;;;;;9.70;2.10;;;4.40;83.90;;;;;;5008958;28;20427;-59
2022/02/21 09:53:59;;;;;;;13.03;2.30;;;4.40;85.40;;;;;;5019037;28;20444;-59
2022/02/21 09:56:25;;;;;;;10.50;2.80;;;4.30;86.80;;;;;;5029625;28;20224;-60
2022/02/21 09:58:54;;;;;;;13.80;2.97;;;4.30;90.70;;;;;;5022614;28;20459;-59
2022/02/21 10:01:24;;;;;;;22.20;2.60;;;4.30;92.30;;;;;;5007481;28;20495;-57
2022/02/21 10:03:49;;;;;;;14.90;2.73;;;4.30;91.80;;;;;;5007757;28;20466;-59
2022/02/21 10:06:16;;;;;;;9.53;2.60;;;4.30;93.20;;;;;;5015071;28;20990;-58
2022/02/21 10:09:03;;;;;;;8.93;2.70;;;4.30;93.40;;;;;;5009643;28;20227;-59
2022/02/21 10:11:32;;;;;;;8.90;2.50;;;4.20;83.60;;;;;;5003001;28;20545;-59
2022/02/21 10:13:58;;;;;;;7.10;2.30;;;4.10;81.60;;;;;;5005005;28;20817;-59
2022/02/21 10:16:25;;;;;;;16.23;2.50;;;4.10;77.70;;;;;;5005806;28;20431;-57
2022/02/21 10:19:14;;;;;;;9.50;3.20;;;4.00;80.40;;;;;;5010045;28;20195;-59
2022/02/21 10:22:13;;;;;;;16.03;2.70;;;4.00;83.60;;;;;;5003853;28;20426;-60
2022/02/21 10:24:41;;;;;;;5.47;2.33;;;4.10;80.90;;;;;;4996860;28;20835;-60
2022/02/21 10:27:26;;;;;;;8.83;2.97;;;4.20;82.10;;;;;;5006348;28;20471;-59
2022/02/21 10:29:54;;;;;;;9.27;2.37;;;4.20;81.20;;;;;;5005323;28;20455;-60
2022/02/21 10:32:25;;;;;;;11.50;2.70;;;4.20;79.10;;;;;;5010941;28;20420;-59
2022/02/21 10:34:51;;;;;;;5.33;2.53;;;4.20;81.40;;;;;;5009524;28;20442;-59
2022/02/21 10:37:23;;;;;;;10.10;3.53;;;4.30;82.20;;;;;;5011900;28;20430;-57
2022/02/21 10:39:49;;;;;;;8.60;2.60;;;4.30;78.80;;;;;;5009797;28;20457;-59
2022/02/21 10:42:27;;;;;;;11.53;3.00;;;4.30;76.60;;;;;;5013052;28;20443;-60
2022/02/21 10:44:53;;;;;;;15.03;4.30;;;4.30;79.30;;;;;;5006977;28;20418;-60
2022/02/21 10:47:20;;;;;;;7.00;2.50;;;4.50;78.80;;;;;;5008589;28;21028;-59
2022/02/21 10:49:55;;;;;;;7.53;1.93;;;4.70;81.30;;;;;;5006505;28;20231;-57
2022/02/21 10:52:31;;;;;;;10.53;2.60;;;5.00;80.40;;;;;;5009162;28;20441;-58
2022/02/21 10:54:57;;;;;;;14.80;2.60;;;5.30;77.20;;;;;;5007510;28;20703;-58
2022/02/21 10:57:25;;;;;;;11.80;2.63;;;5.70;75.10;;;;;;5008825;28;20426;-57
2022/02/21 10:59:52;;;;;;;11.07;2.13;;;6.00;69.60;;;;;;5004201;28;20542;-57
2022/02/21 11:02:20;;;;;;;10.73;2.40;;;6.20;65.50;;;;;;5013576;28;20439;-57
2022/02/21 11:04:46;;;;;;;14.90;3.23;;;6.30;66.80;;;;;;5026915;28;20457;-58
2022/02/21 11:07:13;;;;;;;9.77;2.47;;;6.50;66.20;;;;;;5017346;28;20466;-58
2022/02/21 11:09:41;;;;;;;9.93;2.17;;;6.80;67.20;;;;;;5010993;28;20463;-58
2022/02/21 11:12:08;;;;;;;12.80;2.50;;;7.00;60.40;;;;;;5009904;28;20458;-58
2022/02/21 11:14:35;;;;;;;6.60;2.27;;;7.00;59.50;;;;;;5015998;28;20507;-58
2022/02/21 11:17:03;;;;;;;8.47;2.20;;;7.00;59.10;;;;;;5008685;28;20435;-58
2022/02/21 11:19:29;;;;;;;8.80;1.93;;;7.20;60.50;;;;;;5006877;28;20959;-59
2022/02/21 11:21:56;;;;;;;7.10;2.10;;;7.40;58.70;;;;;;5021054;28;20927;-59
2022/02/21 11:24:27;;;;;;;10.10;2.50;;;7.60;58.60;;;;;;5007597;28;20427;-60
2022/02/21 11:26:53;;;;;;;11.73;2.33;;;7.90;56.70;;;;;;5014442;28;20463;-58
2022/02/21 11:29:55;;;;;;;9.00;2.50;;;8.10;54.70;;;;;;5007144;28;20612;-58
2022/02/21 11:32:22;;;;;;;7.73;2.40;;;8.30;53.70;;;;;;4962551;28;20188;-59
2022/02/21 11:35:10;;;;;;;7.63;2.17;;;8.80;52.30;;;;;;5006368;28;20481;-59
2022/02/21 11:37:37;;;;;;;5.80;1.97;;;9.10;51.20;;;;;;5000866;28;20916;-59
2022/02/21 11:40:04;;;;;;;4.67;1.60;;;9.30;50.00;;;;;;5001696;28;20451;-63
2022/02/21 11:42:33;;;;;;;9.30;2.50;;;9.50;48.60;;;;;;5006150;28;21006;-60
2022/02/21 11:45:00;;;;;;;6.40;1.70;;;9.90;48.60;;;;;;5002571;28;20435;-62
2022/02/21 11:47:36;;;;;;;11.83;2.57;;;10.00;46.00;;;;;;5007988;28;20658;-61
2022/02/21 11:50:08;;;;;;;10.07;2.03;;;10.30;45.90;;;;;;5001898;28;20500;-61
2022/02/21 11:52:36;;;;;;;3.03;1.70;;;10.40;45.30;;;;;;5005262;28;20488;-62
2022/02/21 11:55:23;;;;;;;8.77;2.20;;;10.70;46.70;;;;;;5018689;28;20846;-61
2022/02/21 11:57:48;;;;;;;3.57;2.27;;;10.60;46.30;;;;;;5006294;28;20530;-58
2022/02/21 12:00:35;;;;;;;6.37;2.33;;;10.40;45.20;;;;;;5007110;28;20430;-55
2022/02/21 12:03:14;;;;;;;5.60;1.93;;;10.40;47.00;;;;;;5006428;28;20271;-57
2022/02/21 12:05:44;;;;;;;7.80;1.90;;;10.40;45.10;;;;;;5008097;28;20439;-55
2022/02/21 12:08:31;;;;;;;4.20;1.60;;;10.40;43.60;;;;;;5010584;28;20471;-61
2022/02/21 12:11:14;;;;;;;4.73;2.03;;;10.10;45.30;;;;;;5000315;28;20435;-58
2022/02/21 12:13:47;;;;;;;5.70;1.67;;;9.60;47.50;;;;;;4993021;28;20542;-56
2022/02/21 12:16:14;;;;;;;4.50;2.00;;;9.00;47.90;;;;;;5006951;28;20437;-57
2022/02/21 12:18:57;;;;;;;3.00;1.73;;;8.70;49.20;;;;;;4993143;28;20467;-58
2022/02/21 12:21:31;;;;;;;4.13;2.00;;;8.70;48.10;;;;;;4995763;28;20463;-58
2022/02/21 12:24:00;;;;;;;3.30;1.77;;;8.40;47.90;;;;;;5003319;28;20580;-60
2022/02/21 12:26:37;;;;;;;6.07;2.30;;;8.00;48.00;;;;;;4998032;28;20535;-60
2022/02/21 12:29:15;;;;;;;8.63;2.27;;;7.60;49.00;;;;;;4999875;28;20482;-56
2022/02/21 12:32:03;;;;;;;5.20;1.50;;;7.30;50.60;;;;;;4999095;28;20562;-61
2022/02/21 12:34:36;;;;;;;4.80;1.83;;;7.00;51.20;;;;;;5004100;28;21228;-59
2022/02/21 12:37:11;;;;;;;6.00;1.80;;;6.70;52.10;;;;;;5004529;28;20526;-58
2022/02/21 12:39:43;;;;;;;4.63;1.70;;;6.70;53.20;;;;;;5010268;28;20524;-59
2022/02/21 12:42:09;;;;;;;7.67;2.07;;;7.30;54.00;;;;;;4997053;28;20439;-60
2022/02/21 12:44:35;;;;;;;3.90;1.90;;;8.70;53.10;;;;;;5005236;28;20461;-57
2022/02/21 12:47:05;;;;;;;2.40;1.47;;;9.80;49.80;;;;;;5005327;28;20470;-59
2022/02/21 12:49:48;;;;;;;6.60;1.50;;;10.70;45.50;;;;;;4998436;28;21194;-58
2022/02/21 12:52:15;;;;;;;4.10;1.83;;;11.50;44.50;;;;;;4995851;28;20437;-59
2022/02/21 12:55:01;;;;;;;5.67;1.90;;;11.90;43.50;;;;;;4998924;28;20501;-57
2022/02/21 12:57:31;;;;;;;4.40;2.30;;;12.10;43.20;;;;;;5003362;28;20762;-57